createdAt,value
2018-08-09T00:00:49.100Z,1.60
2018-08-09T00:03:18.309Z,1.80
2018-08-09T00:05:47.593Z,2.87
2018-08-09T00:08:16.761Z,2.00
2018-08-09T00:10:45.996Z,2.07
2018-08-09T00:13:15.134Z,2.63
2018-08-09T00:15:44.313Z,2.40
2018-08-09T00:18:13.484Z,1.93
2018-08-09T00:20:42.652Z,1.77
2018-08-09T00:23:11.880Z,1.97
2018-08-09T00:25:41.134Z,1.97
2018-08-09T00:28:10.350Z,1.40
2018-08-09T00:30:39.606Z,2.00
2018-08-09T00:33:08.797Z,2.00
2018-08-09T00:35:38.015Z,2.40
2018-08-09T00:38:07.182Z,1.60
2018-08-09T00:40:36.350Z,1.67
2018-08-09T00:43:05.588Z,2.47
2018-08-09T00:45:34.762Z,2.53
2018-08-09T00:48:04.000Z,2.93
2018-08-09T00:50:33.263Z,2.63
2018-08-09T00:53:02.444Z,2.03
2018-08-09T00:55:31.606Z,2.33
2018-08-09T00:58:00.846Z,2.00
2018-08-09T01:00:30.001Z,1.93
2018-08-09T01:02:59.219Z,2.33
2018-08-09T01:05:28.395Z,1.87
2018-08-09T01:07:57.569Z,1.50
2018-08-09T01:10:26.754Z,2.80
2018-08-09T01:12:55.903Z,2.00
2018-08-09T01:15:25.081Z,2.40
2018-08-09T01:17:54.349Z,1.87
2018-08-09T01:20:23.546Z,2.40
2018-08-09T01:22:52.732Z,2.90
2018-08-09T01:25:22.046Z,1.73
2018-08-09T01:27:51.245Z,2.07
2018-08-09T01:30:20.444Z,3.03
2018-08-09T01:32:49.700Z,2.10
2018-08-09T01:35:18.839Z,3.20
2018-08-09T01:37:48.023Z,2.73
2018-08-09T01:40:17.198Z,2.57
2018-08-09T01:43:03.343Z,2.43
2018-08-09T01:45:32.550Z,2.37
2018-08-09T01:48:01.820Z,2.47
2018-08-09T01:50:30.991Z,2.30
2018-08-09T01:53:00.174Z,2.33
2018-08-09T01:55:29.358Z,2.10
2018-08-09T01:57:58.602Z,2.47
2018-08-09T02:00:27.793Z,2.43
2018-08-09T02:02:56.970Z,2.50
2018-08-09T02:05:26.161Z,3.37
2018-08-09T02:07:55.372Z,2.07
2018-08-09T02:10:24.562Z,2.40
2018-08-09T02:12:53.757Z,3.07
2018-08-09T02:15:22.955Z,2.10
2018-08-09T02:17:52.134Z,1.83
2018-08-09T02:20:21.326Z,2.23
2018-08-09T02:22:50.503Z,2.20
2018-08-09T02:25:19.702Z,2.73
2018-08-09T02:27:48.904Z,1.33
2018-08-09T02:30:18.070Z,2.13
2018-08-09T02:32:47.268Z,2.47
2018-08-09T02:35:16.446Z,2.60
2018-08-09T02:37:45.609Z,2.17
2018-08-09T02:40:14.836Z,2.20
2018-08-09T02:42:44.105Z,1.70
2018-08-09T02:45:13.315Z,2.77
2018-08-09T02:47:42.631Z,2.53
2018-08-09T02:50:11.850Z,2.17
2018-08-09T02:52:41.030Z,2.67
2018-08-09T02:55:10.307Z,2.20
2018-08-09T02:57:39.514Z,2.93
2018-08-09T03:00:08.726Z,2.67
2018-08-09T03:02:38.003Z,2.53
2018-08-09T03:05:07.178Z,2.27
2018-08-09T03:07:36.445Z,2.03
2018-08-09T03:10:06.129Z,1.53
2018-08-09T03:12:35.358Z,2.70
2018-08-09T03:15:04.787Z,3.40
2018-08-09T03:17:33.979Z,2.33
2018-08-09T03:20:03.174Z,2.27
2018-08-09T03:22:32.378Z,2.80
2018-08-09T03:25:01.542Z,2.13
2018-08-09T03:27:30.718Z,1.80
2018-08-09T03:30:00.093Z,1.83
2018-08-09T03:32:29.253Z,2.43
2018-08-09T03:34:58.510Z,2.47
2018-08-09T03:37:27.735Z,2.50
2018-08-09T03:39:56.946Z,3.00
2018-08-09T03:42:26.139Z,2.47
2018-08-09T03:44:55.310Z,1.70
2018-08-09T03:47:24.519Z,2.33
2018-08-09T03:49:53.777Z,2.73
2018-08-09T03:52:23.004Z,2.23
2018-08-09T03:54:52.232Z,2.60
2018-08-09T03:57:21.428Z,2.90
2018-08-09T03:59:50.640Z,2.90
2018-08-09T04:02:19.898Z,3.83
2018-08-09T04:04:49.074Z,2.70
2018-08-09T04:07:18.409Z,1.80
2018-08-09T04:09:47.629Z,2.13
2018-08-09T04:12:17.107Z,2.43
2018-08-09T04:14:46.283Z,2.80
2018-08-09T04:17:19.117Z,2.17
2018-08-09T04:19:49.122Z,3.57
2018-08-09T04:22:18.776Z,2.67
2018-08-09T04:24:48.378Z,2.97
2018-08-09T04:27:17.805Z,2.40
2018-08-09T04:29:47.046Z,2.37
2018-08-09T04:32:16.357Z,2.13
2018-08-09T04:34:45.560Z,3.30
2018-08-09T04:37:14.731Z,2.17
2018-08-09T04:39:43.897Z,2.77
2018-08-09T04:42:15.998Z,2.87
2018-08-09T04:44:45.171Z,2.97
2018-08-09T04:47:14.362Z,2.20
2018-08-09T04:49:43.539Z,2.00
2018-08-09T04:52:12.751Z,2.73
2018-08-09T04:54:41.952Z,2.47
2018-08-09T04:57:11.122Z,3.37
2018-08-09T04:59:40.330Z,2.10
2018-08-09T05:02:09.499Z,3.30
2018-08-09T05:04:39.767Z,2.53
2018-08-09T05:07:08.967Z,2.80
2018-08-09T05:09:38.214Z,1.90
2018-08-09T05:12:07.426Z,2.77
2018-08-09T05:14:36.616Z,2.17
2018-08-09T05:17:05.812Z,2.23
2018-08-09T05:19:35.065Z,2.50
2018-08-09T05:22:04.246Z,2.47
2018-08-09T05:24:33.502Z,2.37
2018-08-09T05:27:02.686Z,2.23
2018-08-09T05:29:31.967Z,2.23
2018-08-09T05:32:01.139Z,2.57
2018-08-09T05:34:30.399Z,2.57
2018-08-09T05:36:59.642Z,2.83
2018-08-09T05:39:28.911Z,1.93
2018-08-09T05:41:58.103Z,2.20
2018-08-09T05:44:27.458Z,2.73
2018-08-09T05:46:56.660Z,2.63
2018-08-09T05:49:25.834Z,2.37
2018-08-09T05:51:55.054Z,2.93
2018-08-09T05:54:24.391Z,2.23
2018-08-09T05:56:53.563Z,3.27
2018-08-09T05:59:22.796Z,2.83
2018-08-09T06:01:52.000Z,4.00
2018-08-09T06:04:21.230Z,2.57
2018-08-09T06:06:50.455Z,2.87
2018-08-09T06:09:19.697Z,2.83
2018-08-09T06:11:48.951Z,2.90
2018-08-09T06:14:18.202Z,3.33
2018-08-09T06:16:47.477Z,2.70
2018-08-09T06:19:16.748Z,2.57
2018-08-09T06:21:45.940Z,1.83
2018-08-09T06:24:15.199Z,2.80
2018-08-09T06:26:44.338Z,2.60
2018-08-09T06:29:13.542Z,3.37
2018-08-09T06:31:42.743Z,2.73
2018-08-09T06:34:11.966Z,2.10
2018-08-09T06:36:41.158Z,2.80
2018-08-09T06:39:10.432Z,2.70
2018-08-09T06:41:40.130Z,2.57
2018-08-09T06:44:09.577Z,2.10
2018-08-09T06:46:38.825Z,3.80
2018-08-09T06:49:08.527Z,2.60
2018-08-09T06:51:44.287Z,2.60
2018-08-09T06:54:13.487Z,2.77
2018-08-09T06:56:42.698Z,2.37
2018-08-09T06:59:11.922Z,2.40
2018-08-09T07:01:41.089Z,3.77
2018-08-09T07:04:10.332Z,3.00
2018-08-09T07:06:39.542Z,2.67
2018-08-09T07:09:10.306Z,3.70
2018-08-09T07:11:39.525Z,2.60
2018-08-09T07:14:08.698Z,3.47
2018-08-09T07:16:37.907Z,2.73
2018-08-09T07:19:07.213Z,4.13
2018-08-09T07:21:36.465Z,2.73
2018-08-09T07:24:05.662Z,3.17
2018-08-09T07:26:34.962Z,2.20
2018-08-09T07:29:04.162Z,2.53
2018-08-09T07:31:33.566Z,2.30
2018-08-09T07:34:02.830Z,2.27
2018-08-09T07:36:32.217Z,2.73
2018-08-09T07:39:01.396Z,2.70
2018-08-09T07:41:30.626Z,1.60
2018-08-09T07:43:59.798Z,2.83
2018-08-09T07:46:29.003Z,2.20
2018-08-09T07:48:58.332Z,2.05
2018-08-09T07:51:27.558Z,2.13
2018-08-09T07:53:56.739Z,2.23
2018-08-09T07:56:25.978Z,2.65
2018-08-09T07:58:55.157Z,2.60
2018-08-09T08:01:24.425Z,2.90
2018-08-09T08:03:53.673Z,3.72
2018-08-09T08:06:22.928Z,2.23
2018-08-09T08:08:52.083Z,2.40
2018-08-09T08:11:21.413Z,2.70
2018-08-09T08:13:50.634Z,2.50
2018-08-09T08:16:19.843Z,2.52
2018-08-09T08:18:49.037Z,1.90
2018-08-09T08:21:18.263Z,2.25
2018-08-09T08:23:47.447Z,2.10
2018-08-09T08:26:16.683Z,2.35
2018-08-09T08:28:46.022Z,3.42
2018-08-09T08:31:15.326Z,1.90
2018-08-09T08:33:44.533Z,2.50
2018-08-09T08:36:13.771Z,2.20
2018-08-09T08:38:42.983Z,2.33
2018-08-09T08:41:12.191Z,2.33
2018-08-09T08:43:41.379Z,2.08
2018-08-09T08:46:10.551Z,1.90
2018-08-09T08:48:39.897Z,2.47
2018-08-09T08:51:09.074Z,1.62
2018-08-09T08:53:38.303Z,1.60
2018-08-09T08:56:07.544Z,2.35
2018-08-09T08:58:36.797Z,2.10
2018-08-09T09:01:06.113Z,2.30
2018-08-09T09:03:35.365Z,1.60
2018-08-09T09:06:04.576Z,1.82
2018-08-09T09:08:33.800Z,1.92
2018-08-09T09:11:02.971Z,1.70
2018-08-09T09:13:32.182Z,2.52
2018-08-09T09:16:01.423Z,2.20
2018-08-09T09:18:30.611Z,1.57
2018-08-09T09:20:59.897Z,1.60
2018-08-09T09:23:29.112Z,2.10
2018-08-09T09:25:58.291Z,1.87
2018-08-09T09:28:27.502Z,1.32
2018-08-09T09:30:56.731Z,2.20
2018-08-09T09:33:25.931Z,2.17
2018-08-09T09:35:55.210Z,2.62
2018-08-09T09:38:24.383Z,2.27
2018-08-09T09:40:53.537Z,2.42
2018-08-09T09:43:22.763Z,1.72
2018-08-09T09:45:51.985Z,1.60
2018-08-09T09:48:21.252Z,2.15
2018-08-09T09:50:50.445Z,2.30
2018-08-09T09:53:19.726Z,2.22
2018-08-09T09:55:48.918Z,1.87
2018-08-09T09:58:18.134Z,1.70
2018-08-09T10:00:52.783Z,1.30
2018-08-09T10:03:22.021Z,1.95
2018-08-09T10:05:51.196Z,1.85
2018-08-09T10:08:20.411Z,2.10
2018-08-09T10:10:49.701Z,2.00
2018-08-09T10:13:18.895Z,2.58
2018-08-09T10:15:48.283Z,2.55
2018-08-09T10:18:17.473Z,1.82
2018-08-09T10:20:46.768Z,1.90
2018-08-09T10:23:15.979Z,2.05
2018-08-09T10:25:45.222Z,2.12
2018-08-09T10:28:14.381Z,1.95
2018-08-09T10:30:43.633Z,2.20
2018-08-09T10:33:12.862Z,1.70
2018-08-09T10:35:42.105Z,1.90
2018-08-09T10:38:11.344Z,2.08
2018-08-09T10:40:47.997Z,1.90
2018-08-09T10:43:17.185Z,2.00
2018-08-09T10:45:53.053Z,1.60
2018-08-09T10:48:22.235Z,1.85
2018-08-09T10:50:51.490Z,2.58
2018-08-09T10:53:20.701Z,1.92
2018-08-09T10:55:50.101Z,2.40
2018-08-09T10:58:19.317Z,2.00
2018-08-09T11:00:48.565Z,1.62
2018-08-09T11:03:17.830Z,2.10
2018-08-09T11:05:47.071Z,1.90
2018-08-09T11:08:16.247Z,1.50
2018-08-09T11:10:45.469Z,2.45
2018-08-09T11:13:14.690Z,2.00
2018-08-09T11:15:43.974Z,2.10
2018-08-09T11:18:13.286Z,1.98
2018-08-09T11:20:43.234Z,1.90
2018-08-09T11:23:12.454Z,1.67
2018-08-09T11:25:41.667Z,1.75
2018-08-09T11:28:10.950Z,2.10
2018-08-09T11:30:40.206Z,2.35
2018-08-09T11:33:09.445Z,1.32
2018-08-09T11:35:38.677Z,1.65
2018-08-09T11:38:07.898Z,1.52
2018-08-09T11:40:37.142Z,1.42
2018-08-09T11:43:13.010Z,1.82
2018-08-09T11:45:42.038Z,2.05
2018-08-09T11:48:11.264Z,1.77
2018-08-09T11:50:40.450Z,1.12
2018-08-09T11:53:09.645Z,1.62
2018-08-09T11:55:38.843Z,1.22
2018-08-09T11:58:08.066Z,1.85
2018-08-09T12:00:37.283Z,1.77
2018-08-09T12:03:06.509Z,1.60
2018-08-09T12:05:35.748Z,1.25
2018-08-09T12:08:04.964Z,1.72
2018-08-09T12:10:34.209Z,1.55
2018-08-09T12:13:03.449Z,1.98
2018-08-09T12:15:32.711Z,1.55
2018-08-09T12:18:01.902Z,1.90
2018-08-09T12:20:31.130Z,1.20
2018-08-09T12:23:00.323Z,1.72
2018-08-09T12:25:29.522Z,1.95
2018-08-09T12:27:58.987Z,1.70
2018-08-09T12:30:28.276Z,1.77
2018-08-09T12:32:57.552Z,1.50
2018-08-09T12:35:26.846Z,1.32
2018-08-09T12:37:56.110Z,1.72
2018-08-09T12:40:25.384Z,2.20
2018-08-09T12:42:54.685Z,1.40
2018-08-09T12:45:23.964Z,1.90
2018-08-09T12:47:53.118Z,2.20
2018-08-09T12:50:22.293Z,2.17
2018-08-09T12:52:51.518Z,1.60
2018-08-09T12:55:20.697Z,1.42
2018-08-09T12:57:49.942Z,1.47
2018-08-09T13:00:19.181Z,2.02
2018-08-09T13:02:48.478Z,1.50
2018-08-09T13:05:17.697Z,1.62
2018-08-09T13:07:46.960Z,1.40
2018-08-09T13:10:16.162Z,1.47
2018-08-09T13:12:45.434Z,1.75
2018-08-09T13:15:14.721Z,1.67
2018-08-09T13:17:45.265Z,1.60
2018-08-09T13:20:17.895Z,1.32
2018-08-09T13:22:47.845Z,1.72
2018-08-09T13:25:17.158Z,1.30
2018-08-09T13:27:46.510Z,0.72
2018-08-09T13:30:15.780Z,0.80
2018-08-09T13:32:45.513Z,1.02
2018-08-09T13:35:14.735Z,1.07
2018-08-09T13:37:43.982Z,0.87
2018-08-09T13:40:13.263Z,1.33
2018-08-09T13:42:42.458Z,1.07
2018-08-09T13:45:14.663Z,1.13
2018-08-09T13:47:43.886Z,0.73
2018-08-09T13:50:13.826Z,1.70
2018-08-09T13:52:43.102Z,1.73
2018-08-09T13:55:14.189Z,0.97
2018-08-09T13:57:43.471Z,1.43
2018-08-09T14:00:13.882Z,1.37
2018-08-09T14:02:44.739Z,1.07
2018-08-09T14:05:13.930Z,1.40
2018-08-09T14:07:44.217Z,1.40
2018-08-09T14:10:13.976Z,1.53
2018-08-09T14:12:43.422Z,1.37
2018-08-09T14:15:14.682Z,1.13
2018-08-09T14:17:43.928Z,0.70
2018-08-09T14:20:16.146Z,1.07
2018-08-09T14:22:45.442Z,1.00
2018-08-09T14:25:14.790Z,0.97
2018-08-09T14:27:43.990Z,1.13
2018-08-09T14:30:15.859Z,1.53
2018-08-09T14:32:45.603Z,1.03
2018-08-09T14:35:16.260Z,0.80
2018-08-09T14:37:46.502Z,0.53
2018-08-09T14:40:16.377Z,1.27
2018-08-09T14:42:45.643Z,1.00
2018-08-09T14:45:16.435Z,1.20
2018-08-09T14:47:45.711Z,1.03
2018-08-09T14:50:14.820Z,1.00
2018-08-09T14:52:44.092Z,1.40
2018-08-09T14:55:13.950Z,1.63
2018-08-09T14:57:43.345Z,1.03
2018-08-09T15:00:18.323Z,1.00
2018-08-09T15:02:47.980Z,1.30
2018-08-09T15:05:17.771Z,0.83
2018-08-09T15:07:46.981Z,1.33
2018-08-09T15:10:17.519Z,1.50
2018-08-09T15:12:46.794Z,1.20
2018-08-09T15:15:16.037Z,1.10
2018-08-09T15:17:45.361Z,1.60
2018-08-09T15:20:14.887Z,1.27
2018-08-09T15:22:44.274Z,1.10
2018-08-09T15:25:13.745Z,1.37
2018-08-09T15:27:42.947Z,1.00
2018-08-09T15:30:16.610Z,1.17
2018-08-09T15:32:46.020Z,1.90
2018-08-09T15:35:15.372Z,1.30
2018-08-09T15:37:44.947Z,1.90
2018-08-09T15:40:15.047Z,2.10
2018-08-09T15:42:44.292Z,1.10
2018-08-09T15:45:15.290Z,1.57
2018-08-09T15:47:44.733Z,1.10
2018-08-09T15:50:17.585Z,1.20
2018-08-09T15:52:46.875Z,1.77
2018-08-09T15:55:17.617Z,1.00
2018-08-09T15:57:46.937Z,1.20
2018-08-09T16:00:19.808Z,1.17
2018-08-09T16:02:49.078Z,3.03
2018-08-09T16:05:18.323Z,1.10
2018-08-09T16:07:47.664Z,1.37
2018-08-09T16:10:17.995Z,1.70
2018-08-09T16:12:47.845Z,1.60
2018-08-09T16:15:18.668Z,1.03
2018-08-09T16:17:48.610Z,1.60
2018-08-09T16:20:18.019Z,0.90
2018-08-09T16:22:47.501Z,1.10
2018-08-09T16:25:18.690Z,1.60
2018-08-09T16:27:48.963Z,1.40
2018-08-09T16:30:21.958Z,1.70
2018-08-09T16:32:51.220Z,0.70
2018-08-09T16:35:20.667Z,0.73
2018-08-09T16:37:50.009Z,1.20
2018-08-09T16:40:23.587Z,1.37
2018-08-09T16:42:52.812Z,2.37
2018-08-09T16:45:22.834Z,1.43
2018-08-09T16:47:53.443Z,1.03
2018-08-09T16:50:24.130Z,1.40
2018-08-09T16:52:53.489Z,1.53
2018-08-09T16:55:24.100Z,1.70
2018-08-09T16:57:53.368Z,0.70
2018-08-09T17:00:24.268Z,1.20
2018-08-09T17:02:53.970Z,0.97
2018-08-09T17:05:26.181Z,1.30
2018-08-09T17:07:55.492Z,1.13
2018-08-09T17:10:25.547Z,1.10
2018-08-09T17:12:54.787Z,1.10
2018-08-09T17:15:26.922Z,1.07
2018-08-09T17:17:56.933Z,0.90
2018-08-09T17:20:29.624Z,2.60
2018-08-09T17:22:59.636Z,1.40
2018-08-09T17:25:28.884Z,1.37
2018-08-09T17:27:58.094Z,1.10
2018-08-09T17:30:28.278Z,1.00
2018-08-09T17:32:58.513Z,2.30
2018-08-09T17:35:27.780Z,1.47
2018-08-09T17:37:57.139Z,1.57
2018-08-09T17:40:31.416Z,1.47
2018-08-09T17:43:01.516Z,1.70
2018-08-09T17:45:32.826Z,2.60
2018-08-09T17:48:02.605Z,1.10
2018-08-09T17:50:31.818Z,1.70
2018-08-09T17:53:02.697Z,1.27
2018-08-09T17:55:32.678Z,1.20
2018-08-09T17:58:01.907Z,0.90
2018-08-09T18:00:32.519Z,1.03
2018-08-09T18:03:01.846Z,1.13
2018-08-09T18:05:31.099Z,1.37
2018-08-09T18:08:00.483Z,1.27
2018-08-09T18:10:32.365Z,1.10
2018-08-09T18:13:01.640Z,1.17
2018-08-09T18:15:31.554Z,0.77
2018-08-09T18:18:01.740Z,0.83
2018-08-09T18:20:33.539Z,0.97
2018-08-09T18:23:34.778Z,0.87
2018-08-09T18:26:04.059Z,0.93
2018-08-09T18:28:33.365Z,0.87
2018-08-09T18:31:02.908Z,0.40
2018-08-09T18:33:32.128Z,0.60
2018-08-09T18:36:01.379Z,0.50
2018-08-09T18:38:30.768Z,0.40
2018-08-09T18:41:00.019Z,0.97
2018-08-09T18:43:29.260Z,0.70
2018-08-09T18:45:59.365Z,1.00
2018-08-09T18:48:28.644Z,0.90
2018-08-09T18:50:57.926Z,0.90
2018-08-09T18:53:27.142Z,1.07
2018-08-09T18:55:56.367Z,1.23
2018-08-09T18:58:25.648Z,0.70
2018-08-09T19:00:54.853Z,0.90
2018-08-09T19:03:24.134Z,0.57
2018-08-09T19:05:53.340Z,0.83
2018-08-09T19:08:22.625Z,0.80
2018-08-09T19:10:51.874Z,1.90
2018-08-09T19:13:21.062Z,1.50
2018-08-09T19:15:50.281Z,0.80
2018-08-09T19:18:19.472Z,0.60
2018-08-09T19:20:48.678Z,1.17
2018-08-09T19:23:18.090Z,0.87
2018-08-09T19:25:47.293Z,1.43
2018-08-09T19:28:16.516Z,0.63
2018-08-09T19:30:45.827Z,1.13
2018-08-09T19:33:15.104Z,1.37
2018-08-09T19:35:44.338Z,0.90
2018-08-09T19:38:13.591Z,0.70
2018-08-09T19:40:42.852Z,0.97
2018-08-09T19:43:12.057Z,0.53
2018-08-09T19:45:41.321Z,0.70
2018-08-09T19:48:10.583Z,1.37
2018-08-09T19:50:39.776Z,0.50
2018-08-09T19:53:09.090Z,1.10
2018-08-09T19:55:38.291Z,1.03
2018-08-09T19:58:07.534Z,0.77
2018-08-09T20:00:36.836Z,0.80
2018-08-09T20:03:06.158Z,0.77
2018-08-09T20:05:35.417Z,0.93
2018-08-09T20:08:04.749Z,0.60
2018-08-09T20:10:35.058Z,0.80
2018-08-09T20:13:04.259Z,0.63
2018-08-09T20:15:33.554Z,0.70
2018-08-09T20:18:02.788Z,0.73
2018-08-09T20:20:32.015Z,0.80
2018-08-09T20:23:01.283Z,1.13
2018-08-09T20:25:30.511Z,1.37
2018-08-09T20:27:59.809Z,1.13
2018-08-09T20:30:29.016Z,0.50
2018-08-09T20:32:58.227Z,0.67
2018-08-09T20:35:27.458Z,0.90
2018-08-09T20:37:56.659Z,1.17
2018-08-09T20:40:25.920Z,1.27
2018-08-09T20:42:58.156Z,0.40
2018-08-09T20:45:27.383Z,0.93
2018-08-09T20:47:56.666Z,1.23
2018-08-09T20:50:27.437Z,2.40
2018-08-09T20:52:56.644Z,1.43
2018-08-09T20:55:25.965Z,2.33
2018-08-09T20:57:56.022Z,1.63
2018-08-09T21:00:30.780Z,1.70
2018-08-09T21:03:00.839Z,1.10
2018-08-09T21:05:37.903Z,1.20
2018-08-09T21:08:07.143Z,1.53
2018-08-09T21:10:36.187Z,1.20
2018-08-09T21:13:05.389Z,1.40
2018-08-09T21:15:34.700Z,0.87
2018-08-09T21:18:03.798Z,1.40
2018-08-09T21:20:33.053Z,0.70
2018-08-09T21:23:02.261Z,0.77
2018-08-09T21:25:31.454Z,0.77
2018-08-09T21:28:00.650Z,1.20
2018-08-09T21:30:29.855Z,0.80
2018-08-09T21:32:59.074Z,1.13
2018-08-09T21:35:28.299Z,1.30
2018-08-09T21:37:57.520Z,1.70
2018-08-09T21:40:26.703Z,0.67
2018-08-09T21:42:55.902Z,0.50
2018-08-09T21:45:25.201Z,0.90
2018-08-09T21:47:54.387Z,1.23
2018-08-09T21:50:23.626Z,0.67
2018-08-09T21:52:52.915Z,1.00
2018-08-09T21:55:22.110Z,0.50
2018-08-09T21:57:51.347Z,0.60
2018-08-09T22:00:51.733Z,1.00
2018-08-09T22:03:23.185Z,0.90
2018-08-09T22:05:57.744Z,0.50
2018-08-09T22:08:32.130Z,0.63
2018-08-09T22:11:06.511Z,0.77
2018-08-09T22:13:40.915Z,1.23
2018-08-09T22:16:15.250Z,0.77
2018-08-09T22:18:49.571Z,0.67
2018-08-09T22:21:23.990Z,0.70
2018-08-09T22:23:53.170Z,0.60
2018-08-09T22:26:22.414Z,0.80
2018-08-09T22:28:51.703Z,0.40
2018-08-09T22:31:20.870Z,0.80
2018-08-09T22:33:50.211Z,1.33
2018-08-09T22:36:19.496Z,0.63
2018-08-09T22:38:48.698Z,1.13
2018-08-09T22:41:18.186Z,0.70
2018-08-09T22:43:47.797Z,0.20
2018-08-09T22:46:17.037Z,0.50
2018-08-09T22:48:46.835Z,0.60
2018-08-09T22:51:16.107Z,0.50
2018-08-09T22:53:45.292Z,0.83
2018-08-09T22:56:14.507Z,0.43
2018-08-09T22:58:43.732Z,0.33
2018-08-09T23:01:12.983Z,0.50
2018-08-09T23:03:42.700Z,0.40
2018-08-09T23:06:12.344Z,0.70
2018-08-09T23:08:42.028Z,0.80
2018-08-09T23:11:11.624Z,0.40
2018-08-09T23:19:39.968Z,0.60
2018-08-09T23:22:09.300Z,0.57
2018-08-09T23:24:38.704Z,0.30
2018-08-09T23:27:08.097Z,0.67
2018-08-09T23:29:37.404Z,0.40
2018-08-09T23:32:06.749Z,0.27
2018-08-09T23:34:36.021Z,0.50
2018-08-09T23:37:05.349Z,0.70
2018-08-09T23:39:34.599Z,0.70
2018-08-09T23:42:03.998Z,0.47
2018-08-09T23:44:33.036Z,0.47
2018-08-09T23:47:02.309Z,0.40
2018-08-09T23:49:31.754Z,0.30
2018-08-09T23:52:01.155Z,0.30
2018-08-09T23:54:30.497Z,0.40
2018-08-09T23:56:59.806Z,0.43
2018-08-09T23:59:29.095Z,0.27
